sensor_id;sensor_type;location;lat;lon;timestamp;P1;durP1;ratioP1;P2;durP2;ratioP2
24650;SDS011;12783;48.824;8.662;2023-04-02T00:02:12;2.88;;;0.60;;
24650;SDS011;12783;48.824;8.662;2023-04-02T00:08:00;2.17;;;0.73;;
24650;SDS011;12783;48.824;8.662;2023-04-02T00:10:33;2.72;;;0.55;;
24650;SDS011;12783;48.824;8.662;2023-04-02T00:15:35;1.77;;;0.60;;
24650;SDS011;12783;48.824;8.662;2023-04-02T00:20:41;0.93;;;0.45;;
24650;SDS011;12783;48.824;8.662;2023-04-02T00:23:12;1.98;;;0.60;;
24650;SDS011;12783;48.824;8.662;2023-04-02T00:25:40;1.70;;;0.77;;
24650;SDS011;12783;48.824;8.662;2023-04-02T00:28:14;1.20;;;0.50;;
24650;SDS011;12783;48.824;8.662;2023-04-02T00:30:49;0.50;;;0.50;;
24650;SDS011;12783;48.824;8.662;2023-04-02T00:33:19;0.63;;;0.52;;
24650;SDS011;12783;48.824;8.662;2023-04-02T00:35:49;0.30;;;0.30;;
24650;SDS011;12783;48.824;8.662;2023-04-02T00:38:30;2.05;;;0.40;;
24650;SDS011;12783;48.824;8.662;2023-04-02T00:40:58;0.68;;;0.63;;
24650;SDS011;12783;48.824;8.662;2023-04-02T00:43:28;0.30;;;0.30;;
24650;SDS011;12783;48.824;8.662;2023-04-02T00:45:58;0.70;;;0.47;;
24650;SDS011;12783;48.824;8.662;2023-04-02T00:48:35;0.52;;;0.30;;
24650;SDS011;12783;48.824;8.662;2023-04-02T00:51:13;1.00;;;0.30;;
24650;SDS011;12783;48.824;8.662;2023-04-02T00:53:51;1.70;;;0.40;;
24650;SDS011;12783;48.824;8.662;2023-04-02T00:56:36;0.95;;;0.30;;
24650;SDS011;12783;48.824;8.662;2023-04-02T00:59:16;0.70;;;0.40;;
24650;SDS011;12783;48.824;8.662;2023-04-02T01:01:49;0.65;;;0.40;;
24650;SDS011;12783;48.824;8.662;2023-04-02T01:04:33;4.18;;;0.40;;
24650;SDS011;12783;48.824;8.662;2023-04-02T01:07:01;0.80;;;0.38;;
24650;SDS011;12783;48.824;8.662;2023-04-02T01:14:50;1.48;;;0.45;;
24650;SDS011;12783;48.824;8.662;2023-04-02T01:25:34;0.52;;;0.50;;
24650;SDS011;12783;48.824;8.662;2023-04-02T01:30:55;2.67;;;0.95;;
24650;SDS011;12783;48.824;8.662;2023-04-02T01:33:24;1.13;;;0.65;;
24650;SDS011;12783;48.824;8.662;2023-04-02T01:36:16;3.20;;;0.85;;
24650;SDS011;12783;48.824;8.662;2023-04-02T01:41:42;1.50;;;0.68;;
24650;SDS011;12783;48.824;8.662;2023-04-02T01:44:40;1.80;;;0.90;;
24650;SDS011;12783;48.824;8.662;2023-04-02T01:47:10;2.70;;;0.68;;
24650;SDS011;12783;48.824;8.662;2023-04-02T01:49:38;1.73;;;1.13;;
24650;SDS011;12783;48.824;8.662;2023-04-02T01:52:05;0.75;;;0.70;;
24650;SDS011;12783;48.824;8.662;2023-04-02T01:54:32;1.25;;;0.98;;
24650;SDS011;12783;48.824;8.662;2023-04-02T01:56:59;1.17;;;1.08;;
24650;SDS011;12783;48.824;8.662;2023-04-02T01:59:26;0.90;;;0.90;;
24650;SDS011;12783;48.824;8.662;2023-04-02T02:04:25;1.30;;;1.00;;
24650;SDS011;12783;48.824;8.662;2023-04-02T02:06:52;1.08;;;0.98;;
24650;SDS011;12783;48.824;8.662;2023-04-02T02:09:20;1.45;;;0.90;;
24650;SDS011;12783;48.824;8.662;2023-04-02T02:11:49;1.15;;;0.93;;
24650;SDS011;12783;48.824;8.662;2023-04-02T02:14:17;1.05;;;0.95;;
24650;SDS011;12783;48.824;8.662;2023-04-02T02:16:48;1.60;;;1.13;;
24650;SDS011;12783;48.824;8.662;2023-04-02T02:19:21;1.35;;;1.00;;
24650;SDS011;12783;48.824;8.662;2023-04-02T02:24:45;2.15;;;1.30;;
24650;SDS011;12783;48.824;8.662;2023-04-02T02:27:27;1.35;;;1.25;;
24650;SDS011;12783;48.824;8.662;2023-04-02T02:30:04;1.30;;;1.20;;
24650;SDS011;12783;48.824;8.662;2023-04-02T02:32:38;1.45;;;1.30;;
24650;SDS011;12783;48.824;8.662;2023-04-02T02:37:39;1.10;;;0.90;;
24650;SDS011;12783;48.824;8.662;2023-04-02T02:40:10;2.70;;;1.30;;
24650;SDS011;12783;48.824;8.662;2023-04-02T02:42:43;1.45;;;1.20;;
24650;SDS011;12783;48.824;8.662;2023-04-02T02:45:15;1.48;;;1.10;;
24650;SDS011;12783;48.824;8.662;2023-04-02T02:47:44;1.27;;;1.13;;
24650;SDS011;12783;48.824;8.662;2023-04-02T02:50:22;1.35;;;1.10;;
24650;SDS011;12783;48.824;8.662;2023-04-02T02:52:57;1.00;;;1.00;;
24650;SDS011;12783;48.824;8.662;2023-04-02T02:55:34;1.58;;;1.00;;
24650;SDS011;12783;48.824;8.662;2023-04-02T02:58:04;1.30;;;1.20;;
24650;SDS011;12783;48.824;8.662;2023-04-02T03:00:38;2.80;;;1.10;;
24650;SDS011;12783;48.824;8.662;2023-04-02T03:03:06;1.60;;;1.00;;
24650;SDS011;12783;48.824;8.662;2023-04-02T03:05:36;1.55;;;0.98;;
24650;SDS011;12783;48.824;8.662;2023-04-02T03:08:05;1.20;;;1.02;;
24650;SDS011;12783;48.824;8.662;2023-04-02T03:10:42;1.38;;;1.10;;
24650;SDS011;12783;48.824;8.662;2023-04-02T03:18:35;1.42;;;0.95;;
24650;SDS011;12783;48.824;8.662;2023-04-02T03:21:20;1.42;;;0.80;;
24650;SDS011;12783;48.824;8.662;2023-04-02T03:24:19;0.80;;;0.70;;
24650;SDS011;12783;48.824;8.662;2023-04-02T03:29:34;0.60;;;0.60;;
24650;SDS011;12783;48.824;8.662;2023-04-02T03:32:06;1.23;;;0.60;;
24650;SDS011;12783;48.824;8.662;2023-04-02T03:34:42;0.63;;;0.60;;
24650;SDS011;12783;48.824;8.662;2023-04-02T03:42:43;0.90;;;0.50;;
24650;SDS011;12783;48.824;8.662;2023-04-02T03:45:23;0.85;;;0.60;;
24650;SDS011;12783;48.824;8.662;2023-04-02T03:48:11;0.60;;;0.52;;
24650;SDS011;12783;48.824;8.662;2023-04-02T03:50:44;0.68;;;0.40;;
24650;SDS011;12783;48.824;8.662;2023-04-02T03:53:24;0.60;;;0.52;;
24650;SDS011;12783;48.824;8.662;2023-04-02T03:55:51;0.52;;;0.52;;
24650;SDS011;12783;48.824;8.662;2023-04-02T03:58:23;0.50;;;0.50;;
24650;SDS011;12783;48.824;8.662;2023-04-02T04:00:52;0.60;;;0.50;;
24650;SDS011;12783;48.824;8.662;2023-04-02T04:03:49;1.42;;;1.10;;
24650;SDS011;12783;48.824;8.662;2023-04-02T04:06:24;2.95;;;0.60;;
24650;SDS011;12783;48.824;8.662;2023-04-02T04:08:55;0.70;;;0.70;;
24650;SDS011;12783;48.824;8.662;2023-04-02T04:11:31;0.60;;;0.60;;
24650;SDS011;12783;48.824;8.662;2023-04-02T04:16:58;0.60;;;0.60;;
24650;SDS011;12783;48.824;8.662;2023-04-02T04:19:48;0.50;;;0.50;;
24650;SDS011;12783;48.824;8.662;2023-04-02T04:22:24;0.60;;;0.43;;
24650;SDS011;12783;48.824;8.662;2023-04-02T04:24:56;0.60;;;0.50;;
24650;SDS011;12783;48.824;8.662;2023-04-02T04:27:25;0.60;;;0.60;;
24650;SDS011;12783;48.824;8.662;2023-04-02T04:30:04;1.20;;;0.90;;
24650;SDS011;12783;48.824;8.662;2023-04-02T04:32:47;1.88;;;1.40;;
24650;SDS011;12783;48.824;8.662;2023-04-02T04:35:25;3.10;;;1.30;;
24650;SDS011;12783;48.824;8.662;2023-04-02T04:37:55;0.68;;;0.63;;
24650;SDS011;12783;48.824;8.662;2023-04-02T04:40:29;0.70;;;0.60;;
24650;SDS011;12783;48.824;8.662;2023-04-02T04:42:59;2.22;;;0.68;;
24650;SDS011;12783;48.824;8.662;2023-04-02T04:48:05;0.40;;;0.40;;
24650;SDS011;12783;48.824;8.662;2023-04-02T04:50:37;0.93;;;0.45;;
24650;SDS011;12783;48.824;8.662;2023-04-02T04:53:16;1.42;;;0.50;;
24650;SDS011;12783;48.824;8.662;2023-04-02T04:55:46;0.30;;;0.30;;
24650;SDS011;12783;48.824;8.662;2023-04-02T04:58:20;0.30;;;0.30;;
24650;SDS011;12783;48.824;8.662;2023-04-02T05:07:01;2.17;;;0.40;;
24650;SDS011;12783;48.824;8.662;2023-04-02T05:09:44;0.40;;;0.40;;
24650;SDS011;12783;48.824;8.662;2023-04-02T05:15:03;0.70;;;0.60;;
24650;SDS011;12783;48.824;8.662;2023-04-02T05:20:31;1.95;;;0.40;;
24650;SDS011;12783;48.824;8.662;2023-04-02T05:23:02;0.45;;;0.40;;
24650;SDS011;12783;48.824;8.662;2023-04-02T05:25:51;0.40;;;0.40;;
24650;SDS011;12783;48.824;8.662;2023-04-02T05:28:31;1.02;;;0.30;;
24650;SDS011;12783;48.824;8.662;2023-04-02T05:31:21;0.40;;;0.40;;
24650;SDS011;12783;48.824;8.662;2023-04-02T05:33:51;0.77;;;0.60;;
24650;SDS011;12783;48.824;8.662;2023-04-02T05:36:20;1.00;;;0.30;;
24650;SDS011;12783;48.824;8.662;2023-04-02T05:38:49;0.57;;;0.57;;
24650;SDS011;12783;48.824;8.662;2023-04-02T05:41:21;0.50;;;0.50;;
24650;SDS011;12783;48.824;8.662;2023-04-02T05:43:56;0.50;;;0.50;;
24650;SDS011;12783;48.824;8.662;2023-04-02T05:46:36;0.30;;;0.30;;
24650;SDS011;12783;48.824;8.662;2023-04-02T05:49:12;0.60;;;0.40;;
24650;SDS011;12783;48.824;8.662;2023-04-02T05:51:49;0.20;;;0.20;;
24650;SDS011;12783;48.824;8.662;2023-04-02T05:54:22;0.73;;;0.38;;
24650;SDS011;12783;48.824;8.662;2023-04-02T05:56:56;1.13;;;0.57;;
24650;SDS011;12783;48.824;8.662;2023-04-02T05:59:28;0.43;;;0.40;;
24650;SDS011;12783;48.824;8.662;2023-04-02T06:02:05;0.45;;;0.45;;
24650;SDS011;12783;48.824;8.662;2023-04-02T06:04:49;0.65;;;0.47;;
24650;SDS011;12783;48.824;8.662;2023-04-02T06:07:25;0.68;;;0.40;;
24650;SDS011;12783;48.824;8.662;2023-04-02T06:10:04;0.50;;;0.50;;
24650;SDS011;12783;48.824;8.662;2023-04-02T06:12:38;0.47;;;0.47;;
24650;SDS011;12783;48.824;8.662;2023-04-02T06:15:21;0.50;;;0.50;;
24650;SDS011;12783;48.824;8.662;2023-04-02T06:17:57;0.82;;;0.70;;
24650;SDS011;12783;48.824;8.662;2023-04-02T06:20:42;0.85;;;0.65;;
24650;SDS011;12783;48.824;8.662;2023-04-02T06:28:15;0.50;;;0.50;;
24650;SDS011;12783;48.824;8.662;2023-04-02T06:30:43;1.30;;;0.50;;
24650;SDS011;12783;48.824;8.662;2023-04-02T06:33:11;0.60;;;0.60;;
24650;SDS011;12783;48.824;8.662;2023-04-02T06:35:39;1.73;;;0.65;;
24650;SDS011;12783;48.824;8.662;2023-04-02T06:38:12;0.60;;;0.50;;
24650;SDS011;12783;48.824;8.662;2023-04-02T06:40:43;1.85;;;0.70;;
24650;SDS011;12783;48.824;8.662;2023-04-02T06:43:13;0.90;;;0.70;;
24650;SDS011;12783;48.824;8.662;2023-04-02T06:46:15;1.83;;;0.50;;
24650;SDS011;12783;48.824;8.662;2023-04-02T06:48:46;0.52;;;0.52;;
24650;SDS011;12783;48.824;8.662;2023-04-02T06:51:14;0.50;;;0.50;;
24650;SDS011;12783;48.824;8.662;2023-04-02T06:53:43;0.50;;;0.50;;
24650;SDS011;12783;48.824;8.662;2023-04-02T06:58:47;0.70;;;0.70;;
24650;SDS011;12783;48.824;8.662;2023-04-02T07:01:15;1.50;;;0.70;;
24650;SDS011;12783;48.824;8.662;2023-04-02T07:03:45;0.70;;;0.50;;
24650;SDS011;12783;48.824;8.662;2023-04-02T07:06:16;0.55;;;0.55;;
24650;SDS011;12783;48.824;8.662;2023-04-02T07:08:44;1.63;;;0.57;;
24650;SDS011;12783;48.824;8.662;2023-04-02T07:11:18;0.95;;;0.50;;
24650;SDS011;12783;48.824;8.662;2023-04-02T07:13:47;0.95;;;0.60;;
24650;SDS011;12783;48.824;8.662;2023-04-02T07:16:16;0.55;;;0.55;;
24650;SDS011;12783;48.824;8.662;2023-04-02T07:18:45;0.50;;;0.50;;
24650;SDS011;12783;48.824;8.662;2023-04-02T07:21:12;1.15;;;0.50;;
24650;SDS011;12783;48.824;8.662;2023-04-02T07:23:39;1.65;;;0.50;;
24650;SDS011;12783;48.824;8.662;2023-04-02T07:26:08;0.35;;;0.35;;
24650;SDS011;12783;48.824;8.662;2023-04-02T07:28:39;0.40;;;0.40;;
24650;SDS011;12783;48.824;8.662;2023-04-02T07:31:14;0.93;;;0.60;;
24650;SDS011;12783;48.824;8.662;2023-04-02T07:33:45;0.60;;;0.60;;
24650;SDS011;12783;48.824;8.662;2023-04-02T07:36:13;0.82;;;0.70;;
24650;SDS011;12783;48.824;8.662;2023-04-02T07:38:41;0.60;;;0.40;;
24650;SDS011;12783;48.824;8.662;2023-04-02T07:41:08;1.95;;;1.10;;
24650;SDS011;12783;48.824;8.662;2023-04-02T07:43:36;0.77;;;0.57;;
24650;SDS011;12783;48.824;8.662;2023-04-02T07:46:03;2.72;;;1.27;;
24650;SDS011;12783;48.824;8.662;2023-04-02T07:48:31;2.25;;;1.73;;
24650;SDS011;12783;48.824;8.662;2023-04-02T07:50:57;1.38;;;0.80;;
24650;SDS011;12783;48.824;8.662;2023-04-02T07:55:57;0.30;;;0.30;;
24650;SDS011;12783;48.824;8.662;2023-04-02T07:58:25;0.43;;;0.32;;
24650;SDS011;12783;48.824;8.662;2023-04-02T08:00:52;0.30;;;0.30;;
24650;SDS011;12783;48.824;8.662;2023-04-02T08:03:19;0.30;;;0.28;;
24650;SDS011;12783;48.824;8.662;2023-04-02T08:05:53;0.93;;;0.40;;
24650;SDS011;12783;48.824;8.662;2023-04-02T08:08:21;0.40;;;0.40;;
24650;SDS011;12783;48.824;8.662;2023-04-02T08:10:49;0.43;;;0.43;;
24650;SDS011;12783;48.824;8.662;2023-04-02T08:13:18;0.30;;;0.30;;
24650;SDS011;12783;48.824;8.662;2023-04-02T08:15:45;0.50;;;0.20;;
24650;SDS011;12783;48.824;8.662;2023-04-02T08:18:12;0.25;;;0.25;;
24650;SDS011;12783;48.824;8.662;2023-04-02T08:20:39;0.38;;;0.30;;
24650;SDS011;12783;48.824;8.662;2023-04-02T08:23:11;0.10;;;0.10;;
24650;SDS011;12783;48.824;8.662;2023-04-02T08:25:40;0.80;;;0.80;;
24650;SDS011;12783;48.824;8.662;2023-04-02T08:28:07;3.25;;;0.50;;
24650;SDS011;12783;48.824;8.662;2023-04-02T08:30:34;0.30;;;0.30;;
24650;SDS011;12783;48.824;8.662;2023-04-02T08:33:01;1.25;;;0.77;;
24650;SDS011;12783;48.824;8.662;2023-04-02T08:35:28;3.50;;;1.88;;
24650;SDS011;12783;48.824;8.662;2023-04-02T08:37:55;0.98;;;0.70;;
24650;SDS011;12783;48.824;8.662;2023-04-02T08:40:28;0.95;;;0.70;;
24650;SDS011;12783;48.824;8.662;2023-04-02T08:43:23;0.73;;;0.65;;
24650;SDS011;12783;48.824;8.662;2023-04-02T08:48:55;1.50;;;1.33;;
24650;SDS011;12783;48.824;8.662;2023-04-02T08:51:27;3.47;;;1.90;;
24650;SDS011;12783;48.824;8.662;2023-04-02T08:54:00;2.42;;;2.03;;
24650;SDS011;12783;48.824;8.662;2023-04-02T08:56:30;0.85;;;0.68;;
24650;SDS011;12783;48.824;8.662;2023-04-02T08:59:06;1.35;;;1.00;;
24650;SDS011;12783;48.824;8.662;2023-04-02T09:01:43;1.13;;;1.00;;
24650;SDS011;12783;48.824;8.662;2023-04-02T09:04:19;2.03;;;0.40;;
24650;SDS011;12783;48.824;8.662;2023-04-02T09:06:47;1.92;;;1.23;;
24650;SDS011;12783;48.824;8.662;2023-04-02T09:09:15;66.40;;;38.15;;
24650;SDS011;12783;48.824;8.662;2023-04-02T09:11:58;8.60;;;5.10;;
24650;SDS011;12783;48.824;8.662;2023-04-02T09:14:40;7.63;;;4.88;;
24650;SDS011;12783;48.824;8.662;2023-04-02T09:17:19;7.78;;;6.15;;
24650;SDS011;12783;48.824;8.662;2023-04-02T09:22:43;7.50;;;3.60;;
24650;SDS011;12783;48.824;8.662;2023-04-02T09:25:13;2.92;;;2.28;;
24650;SDS011;12783;48.824;8.662;2023-04-02T09:27:44;2.47;;;1.90;;
24650;SDS011;12783;48.824;8.662;2023-04-02T09:33:16;3.58;;;1.77;;
24650;SDS011;12783;48.824;8.662;2023-04-02T09:43:29;1.00;;;0.90;;
24650;SDS011;12783;48.824;8.662;2023-04-02T09:46:02;2.00;;;1.30;;
24650;SDS011;12783;48.824;8.662;2023-04-02T09:48:34;1.55;;;1.40;;
24650;SDS011;12783;48.824;8.662;2023-04-02T09:56:15;5.50;;;2.72;;
24650;SDS011;12783;48.824;8.662;2023-04-02T09:59:00;12.73;;;7.38;;
24650;SDS011;12783;48.824;8.662;2023-04-02T10:01:44;2.80;;;1.55;;
24650;SDS011;12783;48.824;8.662;2023-04-02T10:04:34;0.82;;;0.82;;
24650;SDS011;12783;48.824;8.662;2023-04-02T10:07:02;29.63;;;16.92;;
24650;SDS011;12783;48.824;8.662;2023-04-02T10:09:32;14.25;;;9.13;;
24650;SDS011;12783;48.824;8.662;2023-04-02T10:12:04;27.92;;;21.52;;
24650;SDS011;12783;48.824;8.662;2023-04-02T10:14:37;8.20;;;6.90;;
24650;SDS011;12783;48.824;8.662;2023-04-02T10:17:13;1.50;;;1.40;;
24650;SDS011;12783;48.824;8.662;2023-04-02T10:19:46;2.80;;;2.17;;
24650;SDS011;12783;48.824;8.662;2023-04-02T10:22:20;6.57;;;5.00;;
24650;SDS011;12783;48.824;8.662;2023-04-02T10:24:48;2.97;;;1.83;;
24650;SDS011;12783;48.824;8.662;2023-04-02T10:27:33;1.35;;;1.00;;
24650;SDS011;12783;48.824;8.662;2023-04-02T10:32:59;1.45;;;1.10;;
24650;SDS011;12783;48.824;8.662;2023-04-02T10:35:34;2.38;;;0.75;;
24650;SDS011;12783;48.824;8.662;2023-04-02T10:40:53;2.10;;;1.52;;
24650;SDS011;12783;48.824;8.662;2023-04-02T10:48:50;2.60;;;0.60;;
24650;SDS011;12783;48.824;8.662;2023-04-02T10:56:47;4.10;;;2.28;;
24650;SDS011;12783;48.824;8.662;2023-04-02T10:59:26;5.95;;;3.88;;
24650;SDS011;12783;48.824;8.662;2023-04-02T11:01:56;5.15;;;2.70;;
24650;SDS011;12783;48.824;8.662;2023-04-02T11:04:29;1.75;;;1.63;;
24650;SDS011;12783;48.824;8.662;2023-04-02T11:07:02;3.70;;;2.80;;
24650;SDS011;12783;48.824;8.662;2023-04-02T11:09:41;2.50;;;2.30;;
24650;SDS011;12783;48.824;8.662;2023-04-02T11:12:20;4.97;;;3.03;;
24650;SDS011;12783;48.824;8.662;2023-04-02T11:14:49;2.33;;;1.50;;
24650;SDS011;12783;48.824;8.662;2023-04-02T11:17:18;1.40;;;1.30;;
24650;SDS011;12783;48.824;8.662;2023-04-02T11:19:45;1.33;;;1.13;;
24650;SDS011;12783;48.824;8.662;2023-04-02T11:22:24;1.20;;;0.98;;
24650;SDS011;12783;48.824;8.662;2023-04-02T11:24:51;1.65;;;1.10;;
24650;SDS011;12783;48.824;8.662;2023-04-02T11:29:50;0.88;;;0.80;;
24650;SDS011;12783;48.824;8.662;2023-04-02T11:32:34;1.50;;;1.00;;
24650;SDS011;12783;48.824;8.662;2023-04-02T11:35:20;0.80;;;0.80;;
24650;SDS011;12783;48.824;8.662;2023-04-02T11:37:54;1.65;;;1.00;;
24650;SDS011;12783;48.824;8.662;2023-04-02T11:48:29;1.35;;;0.80;;
24650;SDS011;12783;48.824;8.662;2023-04-02T11:50:56;1.40;;;1.27;;
24650;SDS011;12783;48.824;8.662;2023-04-02T11:53:33;1.52;;;0.75;;
24650;SDS011;12783;48.824;8.662;2023-04-02T12:06:44;0.55;;;0.55;;
24650;SDS011;12783;48.824;8.662;2023-04-02T12:09:44;1.23;;;0.50;;
24650;SDS011;12783;48.824;8.662;2023-04-02T12:14:45;1.00;;;0.50;;
24650;SDS011;12783;48.824;8.662;2023-04-02T12:17:29;0.88;;;0.70;;
24650;SDS011;12783;48.824;8.662;2023-04-02T12:19:58;0.77;;;0.60;;
24650;SDS011;12783;48.824;8.662;2023-04-02T12:22:39;2.50;;;0.60;;
24650;SDS011;12783;48.824;8.662;2023-04-02T12:25:31;1.37;;;0.70;;
24650;SDS011;12783;48.824;8.662;2023-04-02T12:28:35;0.93;;;0.70;;
24650;SDS011;12783;48.824;8.662;2023-04-02T12:33:35;0.60;;;0.40;;
24650;SDS011;12783;48.824;8.662;2023-04-02T12:36:04;0.40;;;0.40;;
24650;SDS011;12783;48.824;8.662;2023-04-02T12:38:42;0.35;;;0.35;;
24650;SDS011;12783;48.824;8.662;2023-04-02T12:43:59;0.90;;;0.90;;
24650;SDS011;12783;48.824;8.662;2023-04-02T12:46:32;1.80;;;0.60;;
24650;SDS011;12783;48.824;8.662;2023-04-02T12:49:04;0.90;;;0.60;;
24650;SDS011;12783;48.824;8.662;2023-04-02T12:51:34;0.40;;;0.35;;
24650;SDS011;12783;48.824;8.662;2023-04-02T12:54:01;1.00;;;0.90;;
24650;SDS011;12783;48.824;8.662;2023-04-02T12:56:28;1.20;;;0.70;;
24650;SDS011;12783;48.824;8.662;2023-04-02T12:58:58;2.42;;;1.60;;
24650;SDS011;12783;48.824;8.662;2023-04-02T13:01:26;1.65;;;1.23;;
24650;SDS011;12783;48.824;8.662;2023-04-02T13:06:28;1.73;;;1.02;;
24650;SDS011;12783;48.824;8.662;2023-04-02T13:08:56;0.90;;;0.80;;
24650;SDS011;12783;48.824;8.662;2023-04-02T13:11:32;1.27;;;1.17;;
24650;SDS011;12783;48.824;8.662;2023-04-02T13:14:15;1.88;;;1.50;;
24650;SDS011;12783;48.824;8.662;2023-04-02T13:16:43;4.63;;;3.35;;
24650;SDS011;12783;48.824;8.662;2023-04-02T13:21:52;7.05;;;4.03;;
24650;SDS011;12783;48.824;8.662;2023-04-02T13:24:30;2.95;;;2.17;;
24650;SDS011;12783;48.824;8.662;2023-04-02T13:26:58;5.32;;;3.67;;
24650;SDS011;12783;48.824;8.662;2023-04-02T13:29:30;5.05;;;4.15;;
24650;SDS011;12783;48.824;8.662;2023-04-02T13:31:59;3.20;;;2.17;;
24650;SDS011;12783;48.824;8.662;2023-04-02T13:34:36;2.45;;;1.38;;
24650;SDS011;12783;48.824;8.662;2023-04-02T13:37:03;4.05;;;1.95;;
24650;SDS011;12783;48.824;8.662;2023-04-02T13:39:30;1.90;;;1.70;;
24650;SDS011;12783;48.824;8.662;2023-04-02T13:41:57;1.70;;;1.60;;
24650;SDS011;12783;48.824;8.662;2023-04-02T13:44:29;2.40;;;2.15;;
24650;SDS011;12783;48.824;8.662;2023-04-02T13:46:57;2.03;;;1.48;;
24650;SDS011;12783;48.824;8.662;2023-04-02T13:49:24;2.17;;;1.70;;
24650;SDS011;12783;48.824;8.662;2023-04-02T13:52:01;3.95;;;2.40;;
24650;SDS011;12783;48.824;8.662;2023-04-02T13:54:31;1.77;;;1.67;;
24650;SDS011;12783;48.824;8.662;2023-04-02T13:57:02;3.75;;;1.85;;
24650;SDS011;12783;48.824;8.662;2023-04-02T13:59:29;2.08;;;1.58;;
24650;SDS011;12783;48.824;8.662;2023-04-02T14:01:56;3.90;;;1.88;;
24650;SDS011;12783;48.824;8.662;2023-04-02T14:04:29;1.98;;;1.58;;
24650;SDS011;12783;48.824;8.662;2023-04-02T14:12:47;2.40;;;2.00;;
24650;SDS011;12783;48.824;8.662;2023-04-02T14:18:37;3.70;;;2.50;;
24650;SDS011;12783;48.824;8.662;2023-04-02T14:24:16;3.20;;;2.90;;
24650;SDS011;12783;48.824;8.662;2023-04-02T14:26:56;2.67;;;2.47;;
24650;SDS011;12783;48.824;8.662;2023-04-02T14:32:06;4.40;;;2.92;;
24650;SDS011;12783;48.824;8.662;2023-04-02T14:37:10;5.25;;;3.10;;
24650;SDS011;12783;48.824;8.662;2023-04-02T14:39:58;4.10;;;3.70;;
24650;SDS011;12783;48.824;8.662;2023-04-02T14:42:39;21.58;;;4.05;;
24650;SDS011;12783;48.824;8.662;2023-04-02T14:48:10;503.45;;;15.80;;
24650;SDS011;12783;48.824;8.662;2023-04-02T14:50:44;171.32;;;8.32;;
24650;SDS011;12783;48.824;8.662;2023-04-02T14:53:58;57.85;;;5.03;;
24650;SDS011;12783;48.824;8.662;2023-04-02T14:56:03;91.25;;;5.82;;
24650;SDS011;12783;48.824;8.662;2023-04-02T14:58:39;226.10;;;8.68;;
24650;SDS011;12783;48.824;8.662;2023-04-02T15:01:10;171.30;;;8.30;;
24650;SDS011;12783;48.824;8.662;2023-04-02T15:03:54;98.85;;;5.25;;
24650;SDS011;12783;48.824;8.662;2023-04-02T15:06:35;127.43;;;6.53;;
24650;SDS011;12783;48.824;8.662;2023-04-02T15:09:15;148.05;;;7.60;;
24650;SDS011;12783;48.824;8.662;2023-04-02T15:14:47;20.27;;;3.72;;
24650;SDS011;12783;48.824;8.662;2023-04-02T15:17:19;7.90;;;3.95;;
24650;SDS011;12783;48.824;8.662;2023-04-02T15:19:46;128.30;;;6.90;;
24650;SDS011;12783;48.824;8.662;2023-04-02T15:22:17;176.35;;;8.80;;
24650;SDS011;12783;48.824;8.662;2023-04-02T15:25:17;235.38;;;10.02;;
24650;SDS011;12783;48.824;8.662;2023-04-02T15:28:00;136.88;;;7.85;;
24650;SDS011;12783;48.824;8.662;2023-04-02T15:30:49;14.88;;;4.53;;
24650;SDS011;12783;48.824;8.662;2023-04-02T15:36:35;337.88;;;13.98;;
24650;SDS011;12783;48.824;8.662;2023-04-02T15:39:54;464.83;;;15.95;;
24650;SDS011;12783;48.824;8.662;2023-04-02T15:45:40;689.78;;;25.83;;
24650;SDS011;12783;48.824;8.662;2023-04-02T15:51:19;817.78;;;30.60;;
24650;SDS011;12783;48.824;8.662;2023-04-02T15:56:51;761.08;;;27.15;;
24650;SDS011;12783;48.824;8.662;2023-04-02T16:02:40;281.85;;;11.43;;
24650;SDS011;12783;48.824;8.662;2023-04-02T16:10:33;5.55;;;4.30;;
24650;SDS011;12783;48.824;8.662;2023-04-02T16:16:16;4.97;;;4.03;;
24650;SDS011;12783;48.824;8.662;2023-04-02T16:19:05;5.45;;;4.60;;
24650;SDS011;12783;48.824;8.662;2023-04-02T16:21:54;9.93;;;4.53;;
24650;SDS011;12783;48.824;8.662;2023-04-02T16:24:27;4.82;;;4.22;;
24650;SDS011;12783;48.824;8.662;2023-04-02T16:26:56;5.97;;;4.38;;
24650;SDS011;12783;48.824;8.662;2023-04-02T16:29:59;4.95;;;4.28;;
24650;SDS011;12783;48.824;8.662;2023-04-02T16:32:58;4.93;;;3.90;;
24650;SDS011;12783;48.824;8.662;2023-04-02T16:41:24;3.90;;;3.50;;
24650;SDS011;12783;48.824;8.662;2023-04-02T16:43:59;4.57;;;3.70;;
24650;SDS011;12783;48.824;8.662;2023-04-02T16:49:52;3.80;;;3.33;;
24650;SDS011;12783;48.824;8.662;2023-04-02T17:08:35;3.60;;;3.30;;
24650;SDS011;12783;48.824;8.662;2023-04-02T17:11:08;3.17;;;2.88;;
24650;SDS011;12783;48.824;8.662;2023-04-02T17:13:56;4.35;;;3.13;;
24650;SDS011;12783;48.824;8.662;2023-04-02T17:16:46;3.95;;;3.20;;
24650;SDS011;12783;48.824;8.662;2023-04-02T17:19:16;3.15;;;2.85;;
24650;SDS011;12783;48.824;8.662;2023-04-02T17:21:45;3.60;;;2.92;;
24650;SDS011;12783;48.824;8.662;2023-04-02T17:24:48;4.22;;;3.30;;
24650;SDS011;12783;48.824;8.662;2023-04-02T17:30:10;3.78;;;3.40;;
24650;SDS011;12783;48.824;8.662;2023-04-02T17:32:41;3.75;;;3.20;;
24650;SDS011;12783;48.824;8.662;2023-04-02T17:43:43;5.25;;;3.60;;
24650;SDS011;12783;48.824;8.662;2023-04-02T17:46:33;3.80;;;3.35;;
24650;SDS011;12783;48.824;8.662;2023-04-02T17:54:40;3.70;;;3.30;;
24650;SDS011;12783;48.824;8.662;2023-04-02T18:05:43;4.82;;;3.20;;
24650;SDS011;12783;48.824;8.662;2023-04-02T18:13:16;3.70;;;3.00;;
24650;SDS011;12783;48.824;8.662;2023-04-02T18:35:05;3.08;;;2.70;;
24650;SDS011;12783;48.824;8.662;2023-04-02T18:42:59;4.72;;;3.35;;
24650;SDS011;12783;48.824;8.662;2023-04-02T18:45:48;3.38;;;2.78;;
24650;SDS011;12783;48.824;8.662;2023-04-02T18:50:54;5.68;;;3.30;;
24650;SDS011;12783;48.824;8.662;2023-04-02T18:53:22;4.00;;;3.25;;
24650;SDS011;12783;48.824;8.662;2023-04-02T18:55:52;4.40;;;3.47;;
24650;SDS011;12783;48.824;8.662;2023-04-02T18:58:26;5.90;;;3.67;;
24650;SDS011;12783;48.824;8.662;2023-04-02T19:00:55;3.75;;;3.35;;
24650;SDS011;12783;48.824;8.662;2023-04-02T19:03:25;3.63;;;3.20;;
24650;SDS011;12783;48.824;8.662;2023-04-02T19:08:28;5.55;;;3.67;;
24650;SDS011;12783;48.824;8.662;2023-04-02T19:10:58;5.25;;;3.90;;
24650;SDS011;12783;48.824;8.662;2023-04-02T19:14:06;5.55;;;3.88;;
24650;SDS011;12783;48.824;8.662;2023-04-02T19:19:16;8.40;;;4.13;;
24650;SDS011;12783;48.824;8.662;2023-04-02T19:21:56;7.72;;;4.35;;
24650;SDS011;12783;48.824;8.662;2023-04-02T19:24:45;5.05;;;4.22;;
24650;SDS011;12783;48.824;8.662;2023-04-02T19:27:53;6.13;;;4.00;;
24650;SDS011;12783;48.824;8.662;2023-04-02T19:36:10;4.38;;;3.60;;
24650;SDS011;12783;48.824;8.662;2023-04-02T19:38:50;5.28;;;3.67;;
24650;SDS011;12783;48.824;8.662;2023-04-02T19:41:30;5.25;;;3.45;;
24650;SDS011;12783;48.824;8.662;2023-04-02T19:44:17;6.55;;;3.67;;
24650;SDS011;12783;48.824;8.662;2023-04-02T19:46:44;4.70;;;3.67;;
24650;SDS011;12783;48.824;8.662;2023-04-02T19:49:31;5.15;;;3.63;;
24650;SDS011;12783;48.824;8.662;2023-04-02T19:51:59;4.80;;;3.70;;
24650;SDS011;12783;48.824;8.662;2023-04-02T19:54:25;5.38;;;3.30;;
24650;SDS011;12783;48.824;8.662;2023-04-02T19:56:52;4.90;;;3.58;;
24650;SDS011;12783;48.824;8.662;2023-04-02T19:59:19;4.75;;;3.58;;
24650;SDS011;12783;48.824;8.662;2023-04-02T20:01:46;6.05;;;3.25;;
24650;SDS011;12783;48.824;8.662;2023-04-02T20:04:13;3.80;;;3.15;;
24650;SDS011;12783;48.824;8.662;2023-04-02T20:06:41;3.78;;;3.22;;
24650;SDS011;12783;48.824;8.662;2023-04-02T20:09:08;6.85;;;3.38;;
24650;SDS011;12783;48.824;8.662;2023-04-02T20:11:35;5.28;;;3.28;;
24650;SDS011;12783;48.824;8.662;2023-04-02T20:14:03;4.32;;;3.35;;
24650;SDS011;12783;48.824;8.662;2023-04-02T20:16:30;4.70;;;3.40;;
24650;SDS011;12783;48.824;8.662;2023-04-02T20:18:58;3.95;;;3.30;;